Pagrindinis puslapis
METAR-TAF:

METAR-TAF

Oro uostai :

Arar, Saudo Arabija

platuma: 30-54N, ilguma: 041-08E, Aukštis: 555 m

Dabartinis oras

Ataskaita buvo paskelbta 1 valandą ir 23 minutes, ne 04:00 UTC
Vėjas 10 kt iš Šiaurės Vakarų
Temperatūra 24°C
Drėgmė 25%
Slėgis 1012 hPa
Matomumas 10 km arba daugiau
nėra debesų žemiau 1500 m ir nėra kamuolinių lietaus debesų

METAR: OERR 290400Z 32010KT CAVOK 24/03 Q1012

Laikas: 08:23 (05:23 UTC)

Prognozė

Ataskaita buvo paskelbta 6 valandos ir 23 minutes, ne 23:00 UTC
Prognozė galioja nuo 29 metu 00 UTC su 30 metu 06 UTC
Vėjas 6 kt iš Šiaurės Vakarų su gūsio iki 16 kt
Matomumas: 7000 m

TAF: OERR 282300Z 2900/3006 32006G16KT 7000 NSC

Orai ataskaitas ir orų prognozės (METAR, TAF).

turimą stotys yra geltonos ir raudonos taškus žemėlapyje.

Perkelti pele per norėdami pamatyti stoties vardą.

Tada spustelėkite, norėdami matyti oro stebėjimo ir prognozės.

Norėdami pakeisti žemėlapį: spustelėkite ant žalios mygtukų su juodo kryžiaus žemyn,; žalią mygtuką su brūkšneliu, jei norite nutolinti; arba žalių rodyklių gretimoms žemėlapius.


METAR-TAF: